Time;durP1;ratioP1;P1;durP2;ratioP2;P2;SDS_P1;SDS_P2;PMS_P1;PMS_P2;Temp;Humidity;BMP_temperature;BMP_pressure;BME280_temperature;BME280_humidity;BME280_pressure;Samples;Min_cycle;Max_cycle;Signal;HPM_P1;HPM_P2
2021/11/23 00:01:11;;;;;;;2.42;1.20;;;6.60;58.30;;;;;;5009066;28;20061;-70
2021/11/23 00:03:36;;;;;;;2.97;1.17;;;6.60;58.30;;;;;;5008609;28;20521;-70
2021/11/23 00:06:02;;;;;;;2.10;1.15;;;6.60;58.60;;;;;;5004219;28;20061;-70
2021/11/23 00:08:28;;;;;;;3.58;1.50;;;6.60;58.60;;;;;;5002199;28;20487;-70
2021/11/23 00:10:53;;;;;;;2.42;1.05;;;6.60;58.40;;;;;;5007909;28;20030;-70
2021/11/23 00:13:20;;;;;;;2.63;0.90;;;6.50;58.30;;;;;;5008669;28;20026;-70
2021/11/23 00:15:45;;;;;;;1.95;1.00;;;6.50;58.20;;;;;;5007697;28;20030;-70
2021/11/23 00:18:15;;;;;;;2.63;1.25;;;6.50;58.80;;;;;;5008948;28;20042;-70
2021/11/23 00:20:43;;;;;;;2.92;1.30;;;6.40;58.60;;;;;;5011457;28;20026;-70
2021/11/23 00:23:11;;;;;;;2.17;0.93;;;6.40;58.60;;;;;;5009391;28;20184;-70
2021/11/23 00:25:36;;;;;;;2.33;1.30;;;6.40;58.70;;;;;;5008993;28;20042;-70
2021/11/23 00:28:02;;;;;;;2.22;1.10;;;6.40;58.80;;;;;;5007805;28;20028;-70
2021/11/23 00:30:30;;;;;;;2.30;1.20;;;6.30;58.80;;;;;;4991804;28;20414;-70
2021/11/23 00:32:56;;;;;;;2.92;1.23;;;6.20;58.90;;;;;;5010348;28;20376;-70
2021/11/23 00:35:23;;;;;;;3.15;1.20;;;6.30;59.30;;;;;;5007990;28;20111;-70
2021/11/23 00:37:49;;;;;;;2.55;0.95;;;6.30;59.10;;;;;;5007398;28;20101;-70
2021/11/23 00:40:16;;;;;;;2.67;1.13;;;6.30;59.50;;;;;;4989951;28;20487;-69
2021/11/23 00:42:42;;;;;;;2.40;1.40;;;6.30;59.40;;;;;;5011432;28;20065;-70
2021/11/23 00:45:11;;;;;;;2.58;1.27;;;6.20;59.30;;;;;;5012880;28;20042;-68
2021/11/23 00:47:38;;;;;;;2.28;1.15;;;6.20;59.70;;;;;;4996852;28;20478;-68
2021/11/23 00:50:05;;;;;;;1.90;0.93;;;6.20;59.50;;;;;;5012378;28;20026;-69
2021/11/23 00:52:30;;;;;;;2.92;1.30;;;6.20;59.40;;;;;;5012505;28;20061;-68
2021/11/23 00:54:56;;;;;;;2.67;1.23;;;6.20;59.60;;;;;;5012524;28;20065;-70
2021/11/23 00:57:22;;;;;;;1.90;1.20;;;6.10;59.80;;;;;;5010331;28;20406;-69
2021/11/23 00:59:47;;;;;;;4.18;1.70;;;6.10;59.80;;;;;;5014513;28;20036;-69
2021/11/23 01:02:13;;;;;;;2.00;1.10;;;6.10;60.20;;;;;;5012340;28;20029;-69
2021/11/23 01:04:38;;;;;;;2.45;1.25;;;6.10;60.00;;;;;;5010705;28;20116;-69
2021/11/23 01:07:04;;;;;;;2.67;1.15;;;6.00;59.90;;;;;;5010872;28;20252;-69
2021/11/23 01:09:30;;;;;;;3.92;1.30;;;6.00;60.40;;;;;;5012565;28;20112;-69
2021/11/23 01:11:56;;;;;;;2.42;1.20;;;6.00;60.40;;;;;;5012963;28;20056;-69
2021/11/23 01:14:22;;;;;;;2.10;1.30;;;6.00;60.40;;;;;;5013363;28;20018;-69
2021/11/23 01:16:48;;;;;;;2.78;1.27;;;6.00;60.60;;;;;;5012194;28;20104;-69
2021/11/23 01:19:18;;;;;;;3.75;1.40;;;6.00;60.60;;;;;;5012223;28;20050;-70
2021/11/23 01:21:44;;;;;;;3.53;1.73;;;6.00;60.60;;;;;;5012118;28;20038;-69
2021/11/23 01:24:11;;;;;;;3.13;1.60;;;6.00;60.60;;;;;;4994011;28;20037;-70
2021/11/23 01:26:37;;;;;;;3.08;1.17;;;6.00;60.60;;;;;;4992425;28;20109;-69
2021/11/23 01:29:04;;;;;;;3.65;1.40;;;6.00;61.00;;;;;;5009349;28;20116;-69
2021/11/23 01:31:30;;;;;;;4.07;1.80;;;6.00;60.90;;;;;;5010055;28;20069;-69
2021/11/23 01:33:56;;;;;;;3.08;1.50;;;6.00;61.10;;;;;;5012010;28;20053;-69
2021/11/23 01:36:23;;;;;;;3.63;1.63;;;6.00;61.20;;;;;;5012306;28;20029;-69
2021/11/23 01:38:49;;;;;;;3.95;1.98;;;6.00;61.20;;;;;;5013265;28;20026;-69
2021/11/23 01:41:14;;;;;;;3.70;1.40;;;6.00;61.30;;;;;;5011832;28;20517;-69
2021/11/23 01:43:40;;;;;;;4.78;1.77;;;6.00;61.30;;;;;;5011815;28;20709;-69
2021/11/23 01:46:06;;;;;;;4.53;1.80;;;6.00;61.20;;;;;;5010894;28;20376;-69
2021/11/23 01:48:32;;;;;;;3.40;1.70;;;6.00;61.40;;;;;;5010261;28;20491;-69
2021/11/23 01:50:59;;;;;;;3.15;1.70;;;6.00;61.40;;;;;;5011613;28;20034;-69
2021/11/23 01:53:25;;;;;;;4.25;1.80;;;6.00;61.50;;;;;;5010649;28;20064;-69
2021/11/23 01:55:51;;;;;;;3.97;1.65;;;6.00;61.80;;;;;;5011270;28;20025;-69
2021/11/23 01:58:17;;;;;;;6.88;2.00;;;6.00;61.80;;;;;;5011389;28;20775;-69
2021/11/23 02:00:45;;;;;;;4.65;1.98;;;6.00;61.70;;;;;;5012032;28;20026;-69
2021/11/23 02:03:12;;;;;;;5.07;2.00;;;6.00;61.80;;;;;;4993665;28;20397;-69
2021/11/23 02:05:38;;;;;;;4.05;2.00;;;6.10;61.90;;;;;;5012975;28;20180;-69
2021/11/23 02:08:04;;;;;;;3.90;1.70;;;6.00;62.00;;;;;;5011237;28;20140;-69
2021/11/23 02:10:30;;;;;;;4.13;1.95;;;6.00;61.80;;;;;;5009076;28;20552;-69
2021/11/23 02:12:56;;;;;;;4.70;2.00;;;6.00;61.90;;;;;;5009594;28;20049;-69
2021/11/23 02:15:22;;;;;;;3.65;1.67;;;6.00;62.00;;;;;;5009647;28;20069;-69
2021/11/23 02:17:48;;;;;;;3.47;1.88;;;6.00;62.40;;;;;;5012811;28;20432;-69
2021/11/23 02:20:17;;;;;;;5.22;2.92;;;5.90;62.50;;;;;;5011924;28;20028;-69
2021/11/23 02:22:44;;;;;;;5.07;2.03;;;5.90;62.80;;;;;;5009416;28;20061;-69
2021/11/23 02:25:10;;;;;;;4.22;1.95;;;5.80;62.70;;;;;;5010328;28;20128;-69
2021/11/23 02:27:37;;;;;;;3.72;1.50;;;5.90;62.90;;;;;;5011195;28;20029;-70
2021/11/23 02:30:05;;;;;;;5.82;2.15;;;5.80;62.70;;;;;;5010972;28;20026;-69
2021/11/23 02:32:51;;;;;;;6.07;2.10;;;5.70;62.80;;;;;;5013319;28;20034;-69
2021/11/23 02:35:19;;;;;;;4.10;2.13;;;5.70;62.90;;;;;;5010688;28;20036;-69
2021/11/23 02:37:47;;;;;;;4.78;2.10;;;5.70;63.20;;;;;;5011283;28;20442;-69
2021/11/23 02:40:14;;;;;;;4.22;1.77;;;5.60;62.80;;;;;;5010641;28;20033;-69
2021/11/23 02:42:40;;;;;;;5.07;2.10;;;5.60;63.50;;;;;;5009439;28;20026;-69
2021/11/23 02:45:07;;;;;;;4.40;2.03;;;5.50;63.10;;;;;;5010231;28;20096;-69
2021/11/23 02:47:34;;;;;;;5.65;2.10;;;5.60;63.40;;;;;;5011381;28;20022;-69
2021/11/23 02:50:00;;;;;;;4.35;1.98;;;5.50;63.60;;;;;;5009076;28;20615;-69
2021/11/23 02:52:27;;;;;;;5.05;2.00;;;5.50;63.60;;;;;;5006456;28;20068;-69
2021/11/23 02:54:57;;;;;;;5.07;1.95;;;5.40;63.50;;;;;;4992810;28;20112;-69
2021/11/23 02:57:27;;;;;;;4.28;1.90;;;5.40;63.70;;;;;;4996132;28;20025;-69
2021/11/23 02:59:54;;;;;;;4.47;2.17;;;5.30;63.60;;;;;;4993960;28;20406;-69
2021/11/23 03:02:20;;;;;;;4.50;2.13;;;5.30;64.00;;;;;;5012221;28;20032;-69
2021/11/23 03:04:53;;;;;;;4.85;2.25;;;5.30;64.00;;;;;;5007796;28;20046;-69
2021/11/23 03:07:19;;;;;;;3.75;1.92;;;5.30;64.40;;;;;;5008049;28;20077;-69
2021/11/23 03:09:45;;;;;;;7.03;2.05;;;5.30;64.10;;;;;;5008514;28;20058;-69
2021/11/23 03:12:19;;;;;;;3.75;2.00;;;5.30;64.40;;;;;;5010179;28;20078;-69
2021/11/23 03:14:45;;;;;;;5.25;2.03;;;5.20;64.50;;;;;;5008100;28;20029;-69
2021/11/23 03:17:13;;;;;;;4.50;2.10;;;5.20;64.70;;;;;;5010501;28;20502;-69
2021/11/23 03:19:40;;;;;;;4.97;2.58;;;5.20;64.80;;;;;;5010146;28;20030;-69
2021/11/23 03:22:07;;;;;;;4.15;2.10;;;5.20;64.70;;;;;;5010014;28;20025;-69
2021/11/23 03:24:33;;;;;;;4.47;2.55;;;5.30;64.80;;;;;;4991439;28;20121;-69
2021/11/23 03:26:59;;;;;;;4.85;2.65;;;5.20;65.90;;;;;;4992529;28;20467;-69
2021/11/23 03:29:25;;;;;;;5.13;2.75;;;5.20;64.80;;;;;;5013384;28;20053;-69
2021/11/23 03:31:51;;;;;;;5.25;3.00;;;5.30;65.40;;;;;;5020485;28;20494;-69
2021/11/23 03:34:17;;;;;;;6.63;3.22;;;5.20;65.00;;;;;;5023665;28;20040;-69
2021/11/23 03:36:43;;;;;;;6.53;3.10;;;5.20;65.00;;;;;;5009852;28;20160;-69
2021/11/23 03:39:09;;;;;;;5.22;2.65;;;5.20;65.00;;;;;;5009507;28;20038;-69
2021/11/23 03:41:36;;;;;;;7.65;2.92;;;5.20;65.00;;;;;;5012656;28;20110;-69
2021/11/23 03:44:03;;;;;;;6.30;3.13;;;5.20;65.50;;;;;;5007951;28;20033;-69
2021/11/23 03:46:28;;;;;;;5.43;2.63;;;5.20;65.80;;;;;;5008007;28;20506;-69
2021/11/23 03:48:54;;;;;;;5.97;2.63;;;5.10;65.50;;;;;;5009879;28;20053;-69
2021/11/23 03:51:20;;;;;;;5.75;2.97;;;5.20;65.60;;;;;;5008534;28;20494;-69
2021/11/23 03:53:45;;;;;;;4.55;2.55;;;5.10;65.50;;;;;;5011824;28;20037;-69
2021/11/23 03:56:13;;;;;;;5.72;2.80;;;5.10;65.60;;;;;;5006908;28;20490;-69
2021/11/23 03:58:39;;;;;;;5.78;2.95;;;5.10;65.60;;;;;;5005523;28;20522;-69
2021/11/23 04:01:05;;;;;;;6.30;3.13;;;5.10;65.60;;;;;;5010619;28;20030;-69
2021/11/23 04:03:30;;;;;;;5.97;2.97;;;5.10;66.70;;;;;;5007868;28;20029;-69
2021/11/23 04:05:57;;;;;;;6.95;3.17;;;5.10;66.40;;;;;;5010156;28;20036;-69
2021/11/23 04:08:23;;;;;;;5.47;2.92;;;5.10;66.30;;;;;;5009331;28;20045;-69
2021/11/23 04:10:49;;;;;;;5.50;3.28;;;5.00;66.20;;;;;;5007725;28;20026;-69
2021/11/23 04:13:16;;;;;;;5.28;3.08;;;5.10;66.20;;;;;;4990705;28;20030;-68
2021/11/23 04:15:43;;;;;;;6.35;2.83;;;5.10;66.00;;;;;;5009531;28;20049;-69
2021/11/23 04:18:09;;;;;;;5.05;2.97;;;5.10;65.80;;;;;;5013822;28;20100;-69
2021/11/23 04:20:34;;;;;;;6.55;3.05;;;5.00;65.90;;;;;;5015028;28;20029;-69
2021/11/23 04:23:00;;;;;;;5.57;2.78;;;5.10;65.70;;;;;;5012931;28;20371;-69
2021/11/23 04:25:25;;;;;;;5.40;2.97;;;5.10;65.90;;;;;;4995482;28;20461;-69
2021/11/23 04:27:52;;;;;;;5.05;2.97;;;5.00;66.00;;;;;;5013471;28;20524;-69
2021/11/23 04:30:19;;;;;;;5.65;3.10;;;5.00;66.50;;;;;;5011671;28;20443;-69
2021/11/23 04:32:44;;;;;;;4.80;3.00;;;5.00;66.20;;;;;;5015318;28;20083;-68
2021/11/23 04:35:12;;;;;;;5.68;3.03;;;5.10;66.30;;;;;;5008655;28;20030;-69
2021/11/23 04:37:38;;;;;;;6.25;3.55;;;5.00;66.10;;;;;;5008850;28;20033;-69
2021/11/23 04:40:07;;;;;;;5.60;2.95;;;5.00;66.20;;;;;;5007666;28;20018;-69
2021/11/23 04:42:32;;;;;;;6.72;3.25;;;5.00;66.50;;;;;;5014376;28;20084;-69
2021/11/23 04:44:58;;;;;;;6.90;3.30;;;5.00;66.70;;;;;;5013795;28;20034;-69
2021/11/23 04:47:24;;;;;;;6.38;3.25;;;5.00;66.40;;;;;;5015201;28;20471;-69
2021/11/23 04:49:49;;;;;;;5.00;3.28;;;5.10;66.50;;;;;;5015354;28;20033;-69
2021/11/23 04:52:15;;;;;;;5.47;3.28;;;5.00;66.70;;;;;;5012912;28;20902;-69
2021/11/23 04:54:41;;;;;;;6.22;3.28;;;5.00;66.50;;;;;;5013589;28;20034;-69
2021/11/23 04:57:07;;;;;;;6.10;3.08;;;5.00;66.80;;;;;;5010803;28;20018;-69
2021/11/23 04:59:33;;;;;;;5.05;3.30;;;5.00;66.40;;;;;;5015083;28;20485;-69
2021/11/23 05:01:58;;;;;;;5.65;3.30;;;5.00;66.50;;;;;;4997414;28;20030;-69
2021/11/23 05:04:25;;;;;;;6.85;3.17;;;5.00;66.40;;;;;;5007925;28;20034;-69
2021/11/23 05:06:50;;;;;;;6.03;3.20;;;5.00;66.40;;;;;;5016481;28;20038;-69
2021/11/23 05:09:16;;;;;;;5.53;2.88;;;5.00;66.20;;;;;;5018524;28;20026;-69
2021/11/23 05:11:46;;;;;;;7.65;3.60;;;4.90;66.40;;;;;;5022675;28;20025;-69
2021/11/23 05:14:12;;;;;;;5.28;3.00;;;4.90;66.60;;;;;;5017813;28;20025;-69
2021/11/23 05:16:38;;;;;;;5.75;3.47;;;4.90;66.90;;;;;;5018122;28;20054;-69
2021/11/23 05:19:03;;;;;;;4.43;3.10;;;4.90;66.90;;;;;;5019508;28;20026;-69
2021/11/23 05:21:29;;;;;;;5.25;3.17;;;4.80;66.90;;;;;;5017189;28;20022;-69
2021/11/23 05:23:55;;;;;;;6.07;3.33;;;4.80;66.80;;;;;;5019712;28;20030;-69
2021/11/23 05:26:21;;;;;;;6.78;3.30;;;4.80;67.00;;;;;;5011053;28;20049;-69
2021/11/23 05:28:46;;;;;;;4.22;2.92;;;4.80;66.70;;;;;;5013620;28;20115;-69
2021/11/23 05:31:12;;;;;;;4.40;2.95;;;4.80;67.40;;;;;;5014647;28;20400;-69
2021/11/23 05:33:38;;;;;;;4.38;2.78;;;4.80;67.20;;;;;;5010659;28;20038;-68
2021/11/23 05:36:03;;;;;;;5.68;2.97;;;4.80;67.20;;;;;;5012739;28;20052;-69
2021/11/23 05:38:29;;;;;;;6.93;3.03;;;4.90;67.30;;;;;;5012411;28;20072;-68
2021/11/23 05:40:55;;;;;;;6.32;3.28;;;4.80;66.80;;;;;;5011546;28;20347;-69
2021/11/23 05:43:20;;;;;;;5.80;3.00;;;4.80;66.90;;;;;;5010352;28;20058;-69
2021/11/23 05:45:46;;;;;;;5.10;3.22;;;4.80;67.10;;;;;;5009866;28;20041;-69
2021/11/23 05:48:12;;;;;;;7.60;3.63;;;4.80;67.10;;;;;;5010914;28;20027;-68
2021/11/23 05:50:39;;;;;;;6.22;3.35;;;4.80;67.20;;;;;;4992451;28;20475;-68
2021/11/23 05:53:04;;;;;;;6.05;3.00;;;4.70;67.10;;;;;;5011713;28;20026;-68
2021/11/23 05:55:32;;;;;;;5.00;3.05;;;4.70;67.30;;;;;;5010132;28;20505;-69
2021/11/23 05:57:58;;;;;;;5.95;3.35;;;4.60;67.60;;;;;;5010067;28;20040;-69
2021/11/23 06:00:24;;;;;;;5.25;3.10;;;4.60;67.20;;;;;;5011729;28;20101;-68
2021/11/23 06:02:50;;;;;;;4.78;3.28;;;4.70;67.70;;;;;;5012490;28;20393;-68
2021/11/23 06:05:15;;;;;;;4.65;2.97;;;4.60;67.60;;;;;;4993040;28;20034;-69
2021/11/23 06:07:41;;;;;;;5.10;3.00;;;4.60;66.90;;;;;;5009765;28;20044;-68
2021/11/23 06:10:07;;;;;;;4.30;3.03;;;4.50;67.20;;;;;;4992270;28;20033;-68
2021/11/23 06:12:32;;;;;;;5.68;3.28;;;4.50;67.20;;;;;;5010034;28;20023;-68
2021/11/23 06:14:59;;;;;;;5.07;3.38;;;4.50;68.20;;;;;;5011716;28;20478;-69
2021/11/23 06:17:27;;;;;;;6.38;3.17;;;4.50;67.80;;;;;;5010405;28;20017;-69
2021/11/23 06:19:53;;;;;;;5.88;3.20;;;4.50;67.60;;;;;;5011574;28;20022;-69
2021/11/23 06:22:20;;;;;;;4.78;2.90;;;4.50;67.90;;;;;;4991538;28;20033;-67
2021/11/23 06:24:45;;;;;;;6.20;3.10;;;4.40;67.90;;;;;;5007013;28;20049;-69
2021/11/23 06:27:11;;;;;;;6.15;3.22;;;4.50;68.10;;;;;;4987168;28;20471;-68
2021/11/23 06:29:37;;;;;;;5.03;3.15;;;4.50;67.90;;;;;;5012036;28;20049;-67
2021/11/23 06:32:03;;;;;;;5.43;3.33;;;4.50;67.70;;;;;;5008676;28;20034;-69
2021/11/23 06:34:29;;;;;;;5.68;3.10;;;4.50;68.00;;;;;;5009464;28;20025;-70
2021/11/23 06:36:57;;;;;;;5.03;2.78;;;4.50;67.70;;;;;;5009063;28;20510;-70
2021/11/23 06:39:23;;;;;;;5.65;3.10;;;4.50;67.80;;;;;;4992044;28;20060;-70
2021/11/23 06:41:48;;;;;;;6.13;3.67;;;4.50;68.00;;;;;;5012163;28;20033;-69
2021/11/23 06:44:14;;;;;;;6.90;3.92;;;4.50;67.90;;;;;;4991979;28;20037;-69
2021/11/23 06:46:40;;;;;;;5.95;3.20;;;4.50;67.70;;;;;;5008437;28;20078;-69
2021/11/23 06:49:05;;;;;;;6.85;3.17;;;4.50;67.60;;;;;;5009005;28;20492;-69
2021/11/23 06:51:31;;;;;;;5.63;3.47;;;4.40;67.70;;;;;;5011468;28;20546;-69
2021/11/23 06:53:57;;;;;;;5.78;3.35;;;4.40;67.90;;;;;;5011296;28;20026;-69
2021/11/23 06:56:23;;;;;;;4.88;3.13;;;4.40;67.90;;;;;;4992946;28;20026;-69
2021/11/23 06:58:49;;;;;;;6.53;3.63;;;4.40;67.70;;;;;;5008924;28;20018;-68
2021/11/23 07:01:15;;;;;;;5.90;3.70;;;4.40;67.60;;;;;;5010557;28;20022;-69
2021/11/23 07:03:42;;;;;;;4.35;3.00;;;4.40;67.90;;;;;;5007470;28;20026;-68
2021/11/23 07:06:07;;;;;;;5.32;3.22;;;4.40;67.80;;;;;;5006423;28;20089;-68
2021/11/23 07:08:33;;;;;;;4.80;2.95;;;4.40;67.90;;;;;;5011313;28;20061;-68
2021/11/23 07:10:59;;;;;;;5.95;3.38;;;4.40;67.90;;;;;;5010337;28;20394;-68
2021/11/23 07:13:24;;;;;;;4.57;3.00;;;4.40;67.90;;;;;;5009132;28;20018;-68
2021/11/23 07:15:52;;;;;;;5.70;3.38;;;4.40;68.60;;;;;;5008379;28;20034;-68
2021/11/23 07:18:17;;;;;;;5.00;3.13;;;4.50;67.90;;;;;;5008779;28;20033;-70
2021/11/23 07:20:45;;;;;;;6.55;3.53;;;4.50;67.60;;;;;;5012304;28;20026;-68
2021/11/23 07:23:11;;;;;;;4.88;3.10;;;4.50;67.50;;;;;;5008974;28;20499;-69
2021/11/23 07:25:37;;;;;;;6.25;3.58;;;4.50;67.70;;;;;;5008391;28;20088;-68
2021/11/23 07:28:04;;;;;;;6.28;3.38;;;4.50;67.90;;;;;;5008222;28;20499;-69
2021/11/23 07:30:30;;;;;;;6.13;3.58;;;4.50;67.40;;;;;;5008908;28;20077;-68
2021/11/23 07:32:56;;;;;;;5.03;3.38;;;4.50;67.80;;;;;;5010785;28;20099;-68
2021/11/23 07:35:23;;;;;;;4.22;2.85;;;4.50;67.70;;;;;;5011360;28;20486;-68
2021/11/23 07:37:49;;;;;;;4.60;3.20;;;4.50;67.60;;;;;;5010730;28;20022;-68
2021/11/23 07:40:15;;;;;;;6.57;3.20;;;4.60;67.80;;;;;;4991350;28;20065;-69
2021/11/23 07:42:41;;;;;;;5.18;3.08;;;4.70;67.70;;;;;;4991092;28;20117;-69
2021/11/23 07:45:08;;;;;;;5.63;3.28;;;4.90;67.80;;;;;;5009991;28;20060;-69
2021/11/23 07:47:34;;;;;;;5.05;3.22;;;5.20;68.10;;;;;;5010907;28;20018;-69
2021/11/23 07:50:00;;;;;;;6.03;3.30;;;5.50;67.80;;;;;;5000847;28;20041;-69
2021/11/23 07:52:26;;;;;;;5.40;3.03;;;5.90;67.50;;;;;;5017129;28;20026;-69
2021/11/23 07:54:51;;;;;;;5.45;3.00;;;6.20;66.90;;;;;;5014823;28;20088;-68
2021/11/23 07:57:17;;;;;;;6.00;3.13;;;6.50;66.30;;;;;;4996751;28;20068;-68
2021/11/23 07:59:43;;;;;;;6.63;3.30;;;6.80;65.60;;;;;;5019521;28;20049;-69
2021/11/23 08:02:09;;;;;;;5.97;3.45;;;7.00;64.80;;;;;;5015432;28;20032;-68
2021/11/23 08:04:34;;;;;;;6.35;3.00;;;7.30;64.60;;;;;;4997597;28;20077;-69
2021/11/23 08:07:00;;;;;;;6.30;3.30;;;7.50;64.00;;;;;;5014742;28;20117;-69
2021/11/23 08:09:26;;;;;;;3.88;2.55;;;7.60;61.30;;;;;;5015139;28;20038;-69
2021/11/23 08:11:51;;;;;;;4.15;2.58;;;7.80;62.50;;;;;;5016997;28;20030;-69
2021/11/23 08:14:17;;;;;;;3.08;2.03;;;8.20;62.40;;;;;;5015235;28;20017;-69
2021/11/23 08:16:43;;;;;;;6.20;2.08;;;8.60;61.40;;;;;;5014550;28;20021;-69
2021/11/23 08:19:08;;;;;;;2.55;1.60;;;8.80;60.90;;;;;;5014421;28;20029;-68
2021/11/23 08:21:34;;;;;;;3.40;1.60;;;9.10;60.40;;;;;;5014544;28;20229;-69
2021/11/23 08:24:00;;;;;;;3.88;1.50;;;9.40;59.30;;;;;;5016760;28;20037;-69
2021/11/23 08:26:26;;;;;;;2.13;1.20;;;9.60;58.70;;;;;;5015687;28;20108;-69
2021/11/23 08:28:52;;;;;;;2.72;1.20;;;9.90;58.60;;;;;;5011146;28;20482;-68
2021/11/23 08:31:18;;;;;;;3.28;1.30;;;10.10;58.60;;;;;;5013201;28;20025;-68
2021/11/23 08:33:45;;;;;;;3.55;1.20;;;10.50;56.40;;;;;;4996874;28;20030;-69
2021/11/23 08:36:11;;;;;;;1.90;1.17;;;10.60;54.70;;;;;;5014817;28;20022;-68
2021/11/23 08:38:37;;;;;;;2.35;1.08;;;10.80;54.90;;;;;;5016627;28;20079;-68
2021/11/23 08:41:04;;;;;;;2.22;1.08;;;11.00;53.00;;;;;;5013735;28;20440;-68
2021/11/23 08:43:30;;;;;;;1.85;1.00;;;11.30;54.20;;;;;;4992438;28;20065;-68
2021/11/23 08:45:56;;;;;;;4.30;1.10;;;11.60;52.80;;;;;;5014523;28;20044;-69
2021/11/23 08:48:22;;;;;;;1.38;0.95;;;11.60;50.80;;;;;;4997080;28;20026;-69
2021/11/23 08:50:47;;;;;;;2.42;1.10;;;11.60;49.90;;;;;;5018530;28;20030;-69
2021/11/23 08:53:14;;;;;;;1.73;0.95;;;11.70;50.60;;;;;;5014359;28;20030;-70
2021/11/23 08:55:40;;;;;;;2.63;0.85;;;11.70;50.50;;;;;;5012714;28;20095;-68
2021/11/23 08:58:08;;;;;;;2.53;0.98;;;11.60;49.90;;;;;;5018223;28;20496;-68
2021/11/23 09:00:35;;;;;;;3.08;1.38;;;11.40;49.90;;;;;;5012953;28;20033;-68
2021/11/23 09:03:00;;;;;;;2.08;1.20;;;11.20;48.40;;;;;;4995118;28;20030;-69
2021/11/23 09:05:31;;;;;;;2.70;1.00;;;11.10;48.90;;;;;;5010087;28;20164;-68
2021/11/23 09:08:02;;;;;;;1.92;1.02;;;11.20;50.30;;;;;;4994352;28;20045;-67
2021/11/23 09:10:29;;;;;;;2.47;1.00;;;11.20;48.70;;;;;;5002693;28;20441;-68
2021/11/23 09:12:59;;;;;;;2.63;0.90;;;11.40;49.40;;;;;;5017899;28;20022;-68
2021/11/23 09:15:26;;;;;;;1.77;1.00;;;11.60;49.60;;;;;;5009404;28;20109;-69
2021/11/23 09:17:55;;;;;;;3.28;1.10;;;11.80;48.20;;;;;;5011701;28;20430;-69
2021/11/23 09:20:21;;;;;;;2.25;0.82;;;11.80;48.00;;;;;;4993263;28;20029;-69
2021/11/23 09:22:47;;;;;;;2.35;0.90;;;12.00;48.00;;;;;;4991520;28;20025;-65
2021/11/23 09:25:15;;;;;;;2.92;0.93;;;12.40;48.00;;;;;;5013228;28;20046;-65
2021/11/23 09:27:41;;;;;;;2.35;0.88;;;12.40;45.70;;;;;;5009452;28;20026;-65
2021/11/23 09:30:11;;;;;;;2.42;0.90;;;12.40;44.00;;;;;;5010377;28;20037;-65
2021/11/23 09:32:37;;;;;;;1.70;0.80;;;12.50;46.20;;;;;;5012287;28;20117;-68
2021/11/23 09:35:03;;;;;;;1.30;0.77;;;12.70;45.80;;;;;;5014661;28;20124;-66
2021/11/23 09:37:29;;;;;;;1.73;0.73;;;13.10;45.10;;;;;;5015073;28;20026;-67
2021/11/23 09:39:55;;;;;;;1.63;0.80;;;13.30;43.30;;;;;;5008919;28;20040;-68
2021/11/23 09:42:22;;;;;;;3.40;0.90;;;13.50;44.60;;;;;;5009318;28;20022;-67
2021/11/23 09:44:49;;;;;;;1.65;0.85;;;13.70;43.40;;;;;;5012582;28;20451;-67
2021/11/23 09:47:16;;;;;;;2.33;0.98;;;13.60;42.10;;;;;;5011190;28;20474;-66
2021/11/23 09:49:42;;;;;;;1.42;0.80;;;13.50;43.10;;;;;;5009027;28;20026;-64
2021/11/23 09:52:09;;;;;;;1.00;0.60;;;13.30;40.40;;;;;;4991645;28;20025;-65
2021/11/23 09:54:38;;;;;;;1.65;0.80;;;13.50;41.70;;;;;;5009241;28;20101;-65
2021/11/23 09:57:03;;;;;;;1.75;0.80;;;13.50;42.40;;;;;;5011561;28;20025;-65
2021/11/23 09:59:29;;;;;;;1.40;0.88;;;13.60;42.00;;;;;;5010760;28;20022;-65
2021/11/23 10:01:58;;;;;;;2.20;0.88;;;13.70;40.10;;;;;;5010828;28;20682;-66
2021/11/23 10:04:26;;;;;;;1.95;1.10;;;13.70;39.20;;;;;;5008459;28;20045;-66
2021/11/23 10:07:04;;;;;;;3.08;0.90;;;13.30;41.10;;;;;;5012454;28;20046;-65
2021/11/23 10:09:43;;;;;;;2.28;0.65;;;13.80;42.40;;;;;;5007907;28;20026;-66
2021/11/23 10:12:24;;;;;;;2.72;1.00;;;14.00;38.90;;;;;;5009205;28;20062;-66
2021/11/23 10:15:17;;;;;;;2.50;1.00;;;13.50;37.50;;;;;;5007969;28;20036;-66
2021/11/23 10:17:46;;;;;;;3.63;0.85;;;13.60;41.60;;;;;;5011577;28;20022;-65
2021/11/23 10:20:28;;;;;;;3.22;0.98;;;14.00;39.00;;;;;;5010577;28;20038;-66
2021/11/23 10:22:54;;;;;;;3.10;0.90;;;13.50;39.50;;;;;;5008021;28;20544;-66
2021/11/23 10:25:21;;;;;;;1.83;0.80;;;13.70;39.70;;;;;;5009048;28;20065;-66
2021/11/23 10:27:47;;;;;;;2.17;0.65;;;13.90;40.10;;;;;;5008790;28;20026;-65
2021/11/23 10:30:12;;;;;;;2.45;0.80;;;14.00;39.80;;;;;;5009414;28;20113;-65
2021/11/23 10:32:49;;;;;;;2.42;0.90;;;14.50;41.70;;;;;;5011353;28;20022;-65
2021/11/23 10:35:17;;;;;;;1.23;0.73;;;14.70;40.40;;;;;;5008621;28;20088;-64
2021/11/23 10:37:43;;;;;;;2.95;0.90;;;14.90;39.60;;;;;;4993215;28;20020;-65
2021/11/23 10:40:11;;;;;;;3.00;0.90;;;14.50;39.00;;;;;;5008355;28;20057;-63
2021/11/23 10:42:38;;;;;;;2.10;1.05;;;14.40;37.20;;;;;;5007813;28;20502;-66
2021/11/23 10:45:09;;;;;;;1.73;0.90;;;13.90;38.30;;;;;;5010767;28;20042;-65
2021/11/23 10:47:40;;;;;;;2.08;1.17;;;14.40;40.10;;;;;;5011006;28;20021;-70
2021/11/23 10:50:08;;;;;;;1.90;0.85;;;14.50;40.30;;;;;;5010600;28;20034;-71
2021/11/23 10:52:39;;;;;;;2.85;0.98;;;14.80;40.00;;;;;;5011028;28;20585;-72
2021/11/23 10:55:16;;;;;;;1.20;0.60;;;14.70;38.80;;;;;;4999804;28;20033;-72
2021/11/23 10:57:43;;;;;;;2.63;0.80;;;14.70;38.80;;;;;;5021083;28;20095;-72
2021/11/23 11:00:11;;;;;;;1.75;0.80;;;14.50;37.50;;;;;;5009333;28;20038;-70
2021/11/23 11:02:41;;;;;;;1.80;0.90;;;14.30;38.10;;;;;;5011768;28;20034;-71
2021/11/23 11:05:10;;;;;;;2.10;0.85;;;14.60;38.40;;;;;;5007390;28;20092;-72
2021/11/23 11:07:37;;;;;;;2.08;1.02;;;14.60;36.40;;;;;;5010619;28;20060;-70
2021/11/23 11:10:05;;;;;;;1.60;0.95;;;14.20;37.00;;;;;;5007789;28;20132;-68
2021/11/23 11:12:31;;;;;;;2.42;1.08;;;13.80;37.20;;;;;;5008159;28;20068;-65
2021/11/23 11:14:59;;;;;;;3.15;1.13;;;14.20;38.10;;;;;;5010638;28;20037;-65
2021/11/23 11:17:28;;;;;;;2.22;0.90;;;14.30;37.30;;;;;;5009500;28;20079;-65
2021/11/23 11:19:56;;;;;;;1.67;1.00;;;14.60;39.30;;;;;;4991350;28;20033;-65
2021/11/23 11:22:25;;;;;;;2.72;1.20;;;15.00;38.10;;;;;;5005365;28;20033;-66
2021/11/23 11:25:09;;;;;;;2.85;1.10;;;15.20;38.20;;;;;;4999085;28;20553;-65
2021/11/23 11:27:39;;;;;;;2.47;1.20;;;15.30;36.50;;;;;;5006179;28;20109;-68
2021/11/23 11:30:36;;;;;;;3.30;1.00;;;15.20;34.40;;;;;;5010399;28;20018;-69
2021/11/23 11:33:07;;;;;;;1.88;0.90;;;14.90;38.20;;;;;;5004470;28;20022;-69
2021/11/23 11:35:50;;;;;;;2.35;1.00;;;15.20;35.80;;;;;;5009906;28;20506;-69
2021/11/23 11:40:55;;;;;;;2.33;1.00;;;15.20;35.10;;;;;;5008185;28;20045;-71
2021/11/23 11:43:30;;;;;;;2.10;1.10;;;15.50;36.80;;;;;;5007390;28;20517;-69
2021/11/23 11:45:55;;;;;;;3.38;1.20;;;15.90;35.40;;;;;;5008138;28;20121;-69
2021/11/23 11:48:34;;;;;;;2.53;1.58;;;15.40;33.90;;;;;;5016363;28;20101;-68
2021/11/23 11:51:09;;;;;;;3.90;1.23;;;15.50;36.90;;;;;;5009448;28;20056;-71
2021/11/23 11:53:43;;;;;;;1.95;1.23;;;16.10;37.30;;;;;;5018933;28;20026;-72
2021/11/23 11:56:10;;;;;;;1.63;1.13;;;15.60;32.70;;;;;;5008536;28;20054;-72
2021/11/23 11:58:52;;;;;;;2.92;1.20;;;15.70;36.60;;;;;;4990582;28;20025;-72
2021/11/23 12:01:26;;;;;;;2.92;1.40;;;15.90;36.10;;;;;;5017346;28;20026;-72
2021/11/23 12:04:13;;;;;;;2.00;1.10;;;15.70;33.60;;;;;;5007897;28;20467;-73
2021/11/23 12:06:54;;;;;;;1.95;1.15;;;15.60;34.30;;;;;;4990408;28;20137;-73
2021/11/23 12:09:29;;;;;;;1.90;1.40;;;15.70;33.40;;;;;;4992856;28;20024;-72
2021/11/23 12:11:56;;;;;;;2.88;1.33;;;15.50;32.60;;;;;;5015430;28;20049;-73
2021/11/23 12:14:26;;;;;;;3.40;1.60;;;14.60;33.70;;;;;;4991827;28;20030;-73
2021/11/23 12:17:17;;;;;;;2.95;1.17;;;14.50;34.80;;;;;;5007507;28;20471;-74
2021/11/23 12:20:02;;;;;;;2.10;1.20;;;15.00;38.10;;;;;;5008460;28;20026;-72
2021/11/23 12:22:39;;;;;;;2.67;1.15;;;15.60;34.90;;;;;;5010570;28;20029;-72
2021/11/23 12:25:07;;;;;;;2.72;1.40;;;15.90;36.00;;;;;;5007996;28;20040;-71
2021/11/23 12:27:35;;;;;;;2.80;1.40;;;16.60;35.60;;;;;;5009522;28;20026;-71
2021/11/23 12:30:00;;;;;;;2.40;1.15;;;16.50;34.10;;;;;;4989078;28;20113;-70
2021/11/23 12:32:34;;;;;;;2.30;1.23;;;16.80;35.30;;;;;;5011375;28;20109;-70
2021/11/23 12:35:01;;;;;;;2.78;1.48;;;17.20;32.40;;;;;;5006488;28;20018;-71
2021/11/23 12:37:35;;;;;;;2.00;1.20;;;17.10;30.60;;;;;;5013090;28;20151;-67
2021/11/23 12:40:18;;;;;;;2.42;1.27;;;17.00;32.30;;;;;;5009075;28;20381;-66
2021/11/23 12:42:53;;;;;;;3.08;1.10;;;17.00;33.80;;;;;;5023167;28;20022;-67
2021/11/23 12:45:37;;;;;;;3.28;1.20;;;17.60;33.00;;;;;;4996335;28;20041;-66
2021/11/23 12:48:04;;;;;;;;;;;17.90;30.00;;;;;;5012790;28;20030;-66
2021/11/23 12:50:31;;;;;;;1.83;0.90;;;17.20;31.70;;;;;;5013935;28;20283;-66
2021/11/23 12:53:09;;;;;;;1.85;0.88;;;16.90;31.50;;;;;;5014478;28;20037;-66
2021/11/23 12:55:35;;;;;;;2.63;1.00;;;17.60;31.70;;;;;;5011474;28;20048;-66
2021/11/23 12:58:01;;;;;;;1.50;0.75;;;18.00;30.30;;;;;;5010860;28;20030;-66